sensor_id;sensor_type;location;lat;lon;timestamp;pressure;altitude;pressure_sealevel;temperature;humidity
47785;BME280;35233;55.686;37.848;2023-05-01T00:00:02;98871.25;;;13.31;52.29
47785;BME280;35233;55.686;37.848;2023-05-01T00:02:29;98855.56;;;13.26;52.72
47785;BME280;35233;55.686;37.848;2023-05-01T00:04:55;98860.75;;;13.29;52.52
47785;BME280;35233;55.686;37.848;2023-05-01T00:07:21;98852.06;;;13.26;52.86
47785;BME280;35233;55.686;37.848;2023-05-01T00:09:46;98856.34;;;13.28;52.77
47785;BME280;35233;55.686;37.848;2023-05-01T00:12:12;98856.44;;;13.27;52.94
47785;BME280;35233;55.686;37.848;2023-05-01T00:14:37;98864.31;;;13.28;52.41
47785;BME280;35233;55.686;37.848;2023-05-01T00:17:03;98868.09;;;13.23;53.17
47785;BME280;35233;55.686;37.848;2023-05-01T00:19:28;98884.75;;;13.26;53.16
47785;BME280;35233;55.686;37.848;2023-05-01T00:21:53;98880.22;;;13.28;52.76
47785;BME280;35233;55.686;37.848;2023-05-01T00:24:19;98866.31;;;13.23;53.18
47785;BME280;35233;55.686;37.848;2023-05-01T00:26:44;98876.78;;;13.26;52.94
47785;BME280;35233;55.686;37.848;2023-05-01T00:29:10;98876.78;;;13.26;52.49
47785;BME280;35233;55.686;37.848;2023-05-01T00:31:36;98880.38;;;13.25;52.76
47785;BME280;35233;55.686;37.848;2023-05-01T00:34:01;98868.94;;;13.23;52.21
47785;BME280;35233;55.686;37.848;2023-05-01T00:36:27;98852.28;;;13.21;53.12
47785;BME280;35233;55.686;37.848;2023-05-01T00:38:52;98846.88;;;13.23;52.56
47785;BME280;35233;55.686;37.848;2023-05-01T00:41:17;98842.31;;;13.26;52.26
47785;BME280;35233;55.686;37.848;2023-05-01T00:43:43;98823.19;;;13.20;52.96
47785;BME280;35233;55.686;37.848;2023-05-01T00:46:09;98827.69;;;13.18;52.84
47785;BME280;35233;55.686;37.848;2023-05-01T00:48:35;98841.50;;;13.24;52.51
47785;BME280;35233;55.686;37.848;2023-05-01T00:51:03;98842.53;;;13.22;53.08
47785;BME280;35233;55.686;37.848;2023-05-01T00:53:31;98846.25;;;13.18;52.54
47785;BME280;35233;55.686;37.848;2023-05-01T00:55:57;98848.91;;;13.18;53.15
47785;BME280;35233;55.686;37.848;2023-05-01T00:58:23;98852.44;;;13.18;53.14
47785;BME280;35233;55.686;37.848;2023-05-01T01:00:49;98875.31;;;13.21;52.45
47785;BME280;35233;55.686;37.848;2023-05-01T01:03:14;98871.59;;;13.23;52.42
47785;BME280;35233;55.686;37.848;2023-05-01T01:06:02;98881.47;;;13.21;53.04
47785;BME280;35233;55.686;37.848;2023-05-01T01:08:33;98877.06;;;13.20;53.10
47785;BME280;35233;55.686;37.848;2023-05-01T01:11:21;98867.41;;;13.19;53.35
47785;BME280;35233;55.686;37.848;2023-05-01T01:19:47;98863.91;;;13.19;53.22
47785;BME280;35233;55.686;37.848;2023-05-01T01:22:20;98837.53;;;13.16;52.71
47785;BME280;35233;55.686;37.848;2023-05-01T01:28:23;98818.13;;;13.15;53.20
47785;BME280;35233;55.686;37.848;2023-05-01T01:36:14;98800.47;;;13.14;53.08
47785;BME280;35233;55.686;37.848;2023-05-01T01:38:57;98810.25;;;13.13;52.90
47785;BME280;35233;55.686;37.848;2023-05-01T01:41:29;98796.91;;;13.15;53.03
47785;BME280;35233;55.686;37.848;2023-05-01T01:44:12;98801.44;;;13.13;53.22
47785;BME280;35233;55.686;37.848;2023-05-01T01:46:42;98796.03;;;13.14;52.93
47785;BME280;35233;55.686;37.848;2023-05-01T01:49:12;98774.06;;;13.12;52.81
47785;BME280;35233;55.686;37.848;2023-05-01T01:51:40;98774.91;;;13.13;53.09
47785;BME280;35233;55.686;37.848;2023-05-01T01:54:07;98789.88;;;13.14;52.54
47785;BME280;35233;55.686;37.848;2023-05-01T01:56:35;98796.28;;;13.10;52.92
47785;BME280;35233;55.686;37.848;2023-05-01T01:59:04;98798.16;;;13.08;52.91
47785;BME280;35233;55.686;37.848;2023-05-01T02:01:32;98817.34;;;13.13;53.19
47785;BME280;35233;55.686;37.848;2023-05-01T02:03:59;98808.69;;;13.09;52.71
47785;BME280;35233;55.686;37.848;2023-05-01T02:06:26;98794.81;;;13.04;52.96
47785;BME280;35233;55.686;37.848;2023-05-01T02:08:53;98791.06;;;13.08;53.08
47785;BME280;35233;55.686;37.848;2023-05-01T02:11:20;98797.16;;;13.10;52.93
47785;BME280;35233;55.686;37.848;2023-05-01T02:13:48;98783.97;;;13.09;52.35
47785;BME280;35233;55.686;37.848;2023-05-01T02:16:14;98786.53;;;13.10;52.41
47785;BME280;35233;55.686;37.848;2023-05-01T02:18:40;98795.50;;;13.08;52.65
47785;BME280;35233;55.686;37.848;2023-05-01T02:21:09;98813.00;;;13.12;52.39
47785;BME280;35233;55.686;37.848;2023-05-01T02:23:45;98834.25;;;13.10;52.72
47785;BME280;35233;55.686;37.848;2023-05-01T02:26:14;98839.56;;;13.10;52.41
47785;BME280;35233;55.686;37.848;2023-05-01T02:28:41;98841.28;;;13.11;53.13
47785;BME280;35233;55.686;37.848;2023-05-01T02:31:08;98835.97;;;13.11;52.97
47785;BME280;35233;55.686;37.848;2023-05-01T02:33:33;98851.03;;;13.11;52.63
47785;BME280;35233;55.686;37.848;2023-05-01T02:35:59;98857.19;;;13.11;53.32
47785;BME280;35233;55.686;37.848;2023-05-01T02:38:24;98847.69;;;13.07;52.92
47785;BME280;35233;55.686;37.848;2023-05-01T02:40:52;98863.38;;;13.12;52.94
47785;BME280;35233;55.686;37.848;2023-05-01T02:43:21;98874.66;;;13.16;52.30
47785;BME280;35233;55.686;37.848;2023-05-01T02:45:48;98877.47;;;13.12;53.05
47785;BME280;35233;55.686;37.848;2023-05-01T02:48:17;98873.03;;;13.13;53.02
47785;BME280;35233;55.686;37.848;2023-05-01T02:50:45;98876.47;;;13.15;52.90
47785;BME280;35233;55.686;37.848;2023-05-01T02:53:12;98873.03;;;13.13;52.80
47785;BME280;35233;55.686;37.848;2023-05-01T02:55:38;98865.25;;;13.10;52.50
47785;BME280;35233;55.686;37.848;2023-05-01T02:58:03;98863.22;;;13.15;53.17
47785;BME280;35233;55.686;37.848;2023-05-01T03:00:29;98854.47;;;13.13;52.50
47785;BME280;35233;55.686;37.848;2023-05-01T03:02:54;98856.09;;;13.16;52.64
47785;BME280;35233;55.686;37.848;2023-05-01T03:05:21;98855.31;;;13.13;52.81
47785;BME280;35233;55.686;37.848;2023-05-01T03:07:46;98858.75;;;13.16;53.11
47785;BME280;35233;55.686;37.848;2023-05-01T03:10:12;98852.44;;;13.18;52.63
47785;BME280;35233;55.686;37.848;2023-05-01T03:12:38;98846.25;;;13.18;52.81
47785;BME280;35233;55.686;37.848;2023-05-01T03:15:04;98843.59;;;13.18;52.68
47785;BME280;35233;55.686;37.848;2023-05-01T03:17:30;98843.69;;;13.16;52.73
47785;BME280;35233;55.686;37.848;2023-05-01T03:19:56;98850.38;;;13.23;52.24
47785;BME280;35233;55.686;37.848;2023-05-01T03:22:21;98856.50;;;13.25;52.58
47785;BME280;35233;55.686;37.848;2023-05-01T03:24:47;98869.63;;;13.28;52.46
47785;BME280;35233;55.686;37.848;2023-05-01T03:27:12;98881.88;;;13.31;52.26
47785;BME280;35233;55.686;37.848;2023-05-01T03:29:38;98892.31;;;13.34;51.87
47785;BME280;35233;55.686;37.848;2023-05-01T03:32:04;98894.19;;;13.32;52.40
47785;BME280;35233;55.686;37.848;2023-05-01T03:34:30;98881.69;;;13.34;52.53
47785;BME280;35233;55.686;37.848;2023-05-01T03:36:55;98882.50;;;13.36;51.82
47785;BME280;35233;55.686;37.848;2023-05-01T03:39:21;98879.59;;;13.41;52.25
47785;BME280;35233;55.686;37.848;2023-05-01T03:41:46;98880.81;;;13.51;51.25
47785;BME280;35233;55.686;37.848;2023-05-01T03:44:12;98869.03;;;13.56;52.06
47785;BME280;35233;55.686;37.848;2023-05-01T03:46:37;98863.72;;;13.56;51.43
47785;BME280;35233;55.686;37.848;2023-05-01T03:49:03;98878.38;;;13.64;51.05
47785;BME280;35233;55.686;37.848;2023-05-01T03:51:28;98866.06;;;13.63;51.38
47785;BME280;35233;55.686;37.848;2023-05-01T03:53:54;98869.56;;;13.63;51.11
47785;BME280;35233;55.686;37.848;2023-05-01T03:56:25;98868.31;;;13.70;51.07
47785;BME280;35233;55.686;37.848;2023-05-01T03:58:51;98871.56;;;13.75;50.95
47785;BME280;35233;55.686;37.848;2023-05-01T04:01:17;98884.59;;;13.80;50.88
47785;BME280;35233;55.686;37.848;2023-05-01T04:03:43;98883.19;;;13.73;50.86
47785;BME280;35233;55.686;37.848;2023-05-01T04:06:10;98884.22;;;13.70;51.00
47785;BME280;35233;55.686;37.848;2023-05-01T04:08:36;98875.56;;;13.67;51.54
47785;BME280;35233;55.686;37.848;2023-05-01T04:11:02;98870.97;;;13.70;50.97
47785;BME280;35233;55.686;37.848;2023-05-01T04:13:27;98874.81;;;13.65;51.21
47785;BME280;35233;55.686;37.848;2023-05-01T04:15:52;98876.34;;;13.69;51.15
47785;BME280;35233;55.686;37.848;2023-05-01T04:18:20;98875.56;;;13.67;50.88
47785;BME280;35233;55.686;37.848;2023-05-01T04:20:45;98877.97;;;13.71;51.27
47785;BME280;35233;55.686;37.848;2023-05-01T04:23:11;98884.13;;;13.72;50.97
47785;BME280;35233;55.686;37.848;2023-05-01T04:25:37;98883.97;;;13.75;51.18
47785;BME280;35233;55.686;37.848;2023-05-01T04:28:02;98887.31;;;13.78;51.05
47785;BME280;35233;55.686;37.848;2023-05-01T04:30:32;98888.34;;;13.76;51.12
47785;BME280;35233;55.686;37.848;2023-05-01T04:32:57;98896.31;;;13.76;51.04
47785;BME280;35233;55.686;37.848;2023-05-01T04:35:23;98901.94;;;13.70;51.22
47785;BME280;35233;55.686;37.848;2023-05-01T04:37:50;98901.00;;;13.71;50.84
47785;BME280;35233;55.686;37.848;2023-05-01T04:40:16;98908.03;;;13.72;51.09
47785;BME280;35233;55.686;37.848;2023-05-01T04:42:41;98902.72;;;13.72;51.37
47785;BME280;35233;55.686;37.848;2023-05-01T04:45:08;98900.91;;;13.72;51.24
47785;BME280;35233;55.686;37.848;2023-05-01T04:47:33;98898.25;;;13.72;50.88
47785;BME280;35233;55.686;37.848;2023-05-01T04:49:59;98898.97;;;13.76;51.04
47785;BME280;35233;55.686;37.848;2023-05-01T04:52:24;98895.38;;;13.77;51.14
47785;BME280;35233;55.686;37.848;2023-05-01T04:54:50;98894.53;;;13.76;51.06
47785;BME280;35233;55.686;37.848;2023-05-01T04:57:15;98903.41;;;13.75;50.75
47785;BME280;35233;55.686;37.848;2023-05-01T04:59:41;98898.88;;;13.77;50.73
47785;BME280;35233;55.686;37.848;2023-05-01T05:02:07;98901.47;;;13.79;50.62
47785;BME280;35233;55.686;37.848;2023-05-01T05:04:33;98894.41;;;13.78;50.89
47785;BME280;35233;55.686;37.848;2023-05-01T05:06:58;98903.16;;;13.80;51.59
47785;BME280;35233;55.686;37.848;2023-05-01T05:09:24;98902.22;;;13.81;50.80
47785;BME280;35233;55.686;37.848;2023-05-01T05:12:07;98901.13;;;13.85;51.39
47785;BME280;35233;55.686;37.848;2023-05-01T05:14:33;98900.34;;;13.83;51.14
47785;BME280;35233;55.686;37.848;2023-05-01T05:16:58;98902.00;;;13.86;51.00
47785;BME280;35233;55.686;37.848;2023-05-01T05:22:08;98899.41;;;13.84;51.04
47785;BME280;35233;55.686;37.848;2023-05-01T05:24:33;98890.91;;;13.77;51.42
47785;BME280;35233;55.686;37.848;2023-05-01T05:26:59;98906.97;;;13.92;50.78
47785;BME280;35233;55.686;37.848;2023-05-01T05:29:24;98900.81;;;13.91;50.86
47785;BME280;35233;55.686;37.848;2023-05-01T05:31:50;98911.00;;;13.99;50.62
47785;BME280;35233;55.686;37.848;2023-05-01T05:34:15;98912.63;;;14.01;50.82
47785;BME280;35233;55.686;37.848;2023-05-01T05:36:41;98916.06;;;14.03;51.05
47785;BME280;35233;55.686;37.848;2023-05-01T05:39:07;98918.66;;;14.05;50.95
47785;BME280;35233;55.686;37.848;2023-05-01T05:41:32;98920.53;;;14.03;50.83
47785;BME280;35233;55.686;37.848;2023-05-01T05:44:17;98921.22;;;14.07;50.41
47785;BME280;35233;55.686;37.848;2023-05-01T05:46:42;98923.78;;;14.08;50.77
47785;BME280;35233;55.686;37.848;2023-05-01T05:49:07;98925.56;;;14.08;50.37
47785;BME280;35233;55.686;37.848;2023-05-01T05:51:33;98926.53;;;14.07;50.62
47785;BME280;35233;55.686;37.848;2023-05-01T05:53:59;98926.34;;;14.10;50.82
47785;BME280;35233;55.686;37.848;2023-05-01T05:56:24;98931.59;;;14.11;50.26
47785;BME280;35233;55.686;37.848;2023-05-01T05:59:08;98925.25;;;14.14;50.80
47785;BME280;35233;55.686;37.848;2023-05-01T06:01:34;98919.84;;;14.15;50.40
47785;BME280;35233;55.686;37.848;2023-05-01T06:04:01;98912.91;;;14.13;50.13
47785;BME280;35233;55.686;37.848;2023-05-01T06:06:27;98922.28;;;14.20;50.43
47785;BME280;35233;55.686;37.848;2023-05-01T06:08:52;98916.06;;;14.19;49.78
47785;BME280;35233;55.686;37.848;2023-05-01T06:11:18;98941.28;;;14.28;50.07
47785;BME280;35233;55.686;37.848;2023-05-01T06:13:45;98926.22;;;14.29;50.01
47785;BME280;35233;55.686;37.848;2023-05-01T06:16:11;98933.75;;;14.36;50.31
47785;BME280;35233;55.686;37.848;2023-05-01T06:18:36;98933.56;;;14.39;50.15
47785;BME280;35233;55.686;37.848;2023-05-01T06:21:05;98929.28;;;14.37;50.00
47785;BME280;35233;55.686;37.848;2023-05-01T06:23:32;98931.69;;;14.41;49.78
47785;BME280;35233;55.686;37.848;2023-05-01T06:25:58;98939.50;;;14.44;49.72
47785;BME280;35233;55.686;37.848;2023-05-01T06:28:24;98941.66;;;14.54;49.42
47785;BME280;35233;55.686;37.848;2023-05-01T06:30:50;98954.78;;;14.57;49.33
47785;BME280;35233;55.686;37.848;2023-05-01T06:33:15;98955.56;;;14.59;49.21
47785;BME280;35233;55.686;37.848;2023-05-01T06:35:41;98953.69;;;14.61;48.92
47785;BME280;35233;55.686;37.848;2023-05-01T06:38:06;98954.38;;;14.64;49.15
47785;BME280;35233;55.686;37.848;2023-05-01T06:40:32;98955.91;;;14.68;49.25
47785;BME280;35233;55.686;37.848;2023-05-01T06:43:01;98946.47;;;14.63;48.72
47785;BME280;35233;55.686;37.848;2023-05-01T06:45:26;98965.44;;;14.73;49.10
47785;BME280;35233;55.686;37.848;2023-05-01T06:47:52;98959.09;;;14.75;49.06
47785;BME280;35233;55.686;37.848;2023-05-01T06:50:18;98962.06;;;14.85;48.71
47785;BME280;35233;55.686;37.848;2023-05-01T06:52:43;98969.63;;;14.92;48.43
47785;BME280;35233;55.686;37.848;2023-05-01T06:55:09;98965.00;;;14.96;48.51
47785;BME280;35233;55.686;37.848;2023-05-01T06:57:34;98970.38;;;14.94;48.65
47785;BME280;35233;55.686;37.848;2023-05-01T07:00:00;98974.06;;;14.92;48.39
47785;BME280;35233;55.686;37.848;2023-05-01T07:02:26;98982.94;;;14.92;48.64
47785;BME280;35233;55.686;37.848;2023-05-01T07:04:52;98987.97;;;14.97;48.42
47785;BME280;35233;55.686;37.848;2023-05-01T07:07:17;98995.69;;;15.02;48.54
47785;BME280;35233;55.686;37.848;2023-05-01T07:09:43;98998.25;;;15.03;48.18
47785;BME280;35233;55.686;37.848;2023-05-01T07:12:09;98996.38;;;15.05;48.23
47785;BME280;35233;55.686;37.848;2023-05-01T07:14:34;98996.44;;;15.04;48.53
47785;BME280;35233;55.686;37.848;2023-05-01T07:17:03;99002.97;;;15.14;48.06
47785;BME280;35233;55.686;37.848;2023-05-01T07:19:30;99000.13;;;15.17;47.90
47785;BME280;35233;55.686;37.848;2023-05-01T07:21:55;99006.47;;;15.30;47.76
47785;BME280;35233;55.686;37.848;2023-05-01T07:24:21;99007.03;;;15.35;47.59
47785;BME280;35233;55.686;37.848;2023-05-01T07:26:46;99005.09;;;15.39;47.67
47785;BME280;35233;55.686;37.848;2023-05-01T07:29:12;99012.00;;;15.42;47.54
47785;BME280;35233;55.686;37.848;2023-05-01T07:31:37;99011.56;;;15.49;47.44
47785;BME280;35233;55.686;37.848;2023-05-01T07:34:06;99010.47;;;15.53;47.25
47785;BME280;35233;55.686;37.848;2023-05-01T07:36:31;99011.13;;;15.57;47.25
47785;BME280;35233;55.686;37.848;2023-05-01T07:38:58;99008.09;;;15.63;46.86
47785;BME280;35233;55.686;37.848;2023-05-01T07:41:24;99024.75;;;15.67;47.05
47785;BME280;35233;55.686;37.848;2023-05-01T07:43:49;99021.41;;;15.63;47.36
47785;BME280;35233;55.686;37.848;2023-05-01T07:46:15;99026.56;;;15.66;46.92
47785;BME280;35233;55.686;37.848;2023-05-01T07:48:41;99041.56;;;15.67;47.01
47785;BME280;35233;55.686;37.848;2023-05-01T07:51:07;99029.41;;;15.63;47.12
47785;BME280;35233;55.686;37.848;2023-05-01T07:53:32;99035.16;;;15.71;47.02
47785;BME280;35233;55.686;37.848;2023-05-01T07:56:08;99033.84;;;15.78;46.85
47785;BME280;35233;55.686;37.848;2023-05-01T07:58:35;99042.91;;;15.90;46.61
47785;BME280;35233;55.686;37.848;2023-05-01T08:01:02;99040.16;;;15.92;46.57
47785;BME280;35233;55.686;37.848;2023-05-01T08:03:30;99041.88;;;15.93;46.40
47785;BME280;35233;55.686;37.848;2023-05-01T08:05:56;99050.25;;;16.01;46.21
47785;BME280;35233;55.686;37.848;2023-05-01T08:08:23;99058.72;;;16.07;46.03
47785;BME280;35233;55.686;37.848;2023-05-01T08:10:50;99060.28;;;16.12;46.08
47785;BME280;35233;55.686;37.848;2023-05-01T08:13:34;99052.00;;;16.16;46.21
47785;BME280;35233;55.686;37.848;2023-05-01T08:16:01;99052.66;;;16.20;45.49
47785;BME280;35233;55.686;37.848;2023-05-01T08:18:46;99057.34;;;16.30;45.79
47785;BME280;35233;55.686;37.848;2023-05-01T08:21:11;99049.06;;;16.35;45.82
47785;BME280;35233;55.686;37.848;2023-05-01T08:23:55;99060.19;;;16.42;45.89
47785;BME280;35233;55.686;37.848;2023-05-01T08:26:21;99060.19;;;16.42;45.30
47785;BME280;35233;55.686;37.848;2023-05-01T08:28:46;99065.72;;;16.39;45.81
47785;BME280;35233;55.686;37.848;2023-05-01T08:31:13;99077.34;;;16.38;46.22
47785;BME280;35233;55.686;37.848;2023-05-01T08:33:38;99074.84;;;16.35;46.09
47785;BME280;35233;55.686;37.848;2023-05-01T08:36:07;99070.09;;;16.25;45.80
47785;BME280;35233;55.686;37.848;2023-05-01T08:38:34;99079.03;;;16.24;46.06
47785;BME280;35233;55.686;37.848;2023-05-01T08:41:00;99084.56;;;16.21;46.15
47785;BME280;35233;55.686;37.848;2023-05-01T08:43:29;99092.63;;;16.20;46.30
47785;BME280;35233;55.686;37.848;2023-05-01T08:45:58;99088.44;;;16.16;46.02
47785;BME280;35233;55.686;37.848;2023-05-01T08:48:28;99093.09;;;16.12;46.14
47785;BME280;35233;55.686;37.848;2023-05-01T08:50:55;99103.78;;;16.12;46.22
47785;BME280;35233;55.686;37.848;2023-05-01T08:53:24;99087.28;;;16.05;46.00
47785;BME280;35233;55.686;37.848;2023-05-01T08:55:50;99099.47;;;16.10;46.06
47785;BME280;35233;55.686;37.848;2023-05-01T08:58:17;99097.19;;;16.03;46.15
47785;BME280;35233;55.686;37.848;2023-05-01T09:00:43;99102.31;;;16.06;46.07
47785;BME280;35233;55.686;37.848;2023-05-01T09:03:11;99107.66;;;16.06;46.58
47785;BME280;35233;55.686;37.848;2023-05-01T09:05:38;99108.69;;;16.04;46.11
47785;BME280;35233;55.686;37.848;2023-05-01T09:08:04;99111.25;;;16.05;46.62
47785;BME280;35233;55.686;37.848;2023-05-01T09:10:29;99101.47;;;16.06;46.39
47785;BME280;35233;55.686;37.848;2023-05-01T09:13:00;99103.38;;;16.04;46.28
47785;BME280;35233;55.686;37.848;2023-05-01T09:15:27;99110.41;;;16.05;46.64
47785;BME280;35233;55.686;37.848;2023-05-01T09:17:53;99131.22;;;15.98;46.53
47785;BME280;35233;55.686;37.848;2023-05-01T09:20:47;99131.78;;;15.89;46.91
47785;BME280;35233;55.686;37.848;2023-05-01T09:23:12;99133.94;;;15.82;47.15
47785;BME280;35233;55.686;37.848;2023-05-01T09:25:38;99122.31;;;15.83;46.77
47785;BME280;35233;55.686;37.848;2023-05-01T09:28:07;99130.19;;;16.01;46.57
47785;BME280;35233;55.686;37.848;2023-05-01T09:30:36;99124.31;;;16.10;46.77
47785;BME280;35233;55.686;37.848;2023-05-01T09:33:10;99127.69;;;16.28;46.03
47785;BME280;35233;55.686;37.848;2023-05-01T09:38:24;99144.75;;;16.54;45.29
47785;BME280;35233;55.686;37.848;2023-05-01T09:40:50;99142.50;;;16.62;45.42
47785;BME280;35233;55.686;37.848;2023-05-01T09:43:27;99145.56;;;16.70;45.33
47785;BME280;35233;55.686;37.848;2023-05-01T09:46:07;99138.81;;;16.79;45.26
47785;BME280;35233;55.686;37.848;2023-05-01T09:48:37;99144.81;;;16.83;45.47
47785;BME280;35233;55.686;37.848;2023-05-01T09:53:51;99139.88;;;16.77;45.38
47785;BME280;35233;55.686;37.848;2023-05-01T09:56:18;99147.28;;;16.86;44.82
47785;BME280;35233;55.686;37.848;2023-05-01T09:58:43;99145.41;;;16.88;45.19
47785;BME280;35233;55.686;37.848;2023-05-01T10:01:09;99142.16;;;16.97;44.71
47785;BME280;35233;55.686;37.848;2023-05-01T10:03:35;99159.88;;;16.98;44.83
47785;BME280;35233;55.686;37.848;2023-05-01T10:06:08;99159.22;;;16.94;45.21
47785;BME280;35233;55.686;37.848;2023-05-01T10:08:49;99164.81;;;16.75;44.98
47785;BME280;35233;55.686;37.848;2023-05-01T10:11:17;99167.09;;;16.67;45.36
47785;BME280;35233;55.686;37.848;2023-05-01T10:13:43;99164.81;;;16.75;45.29
47785;BME280;35233;55.686;37.848;2023-05-01T10:16:27;99163.31;;;16.86;44.88
47785;BME280;35233;55.686;37.848;2023-05-01T10:18:55;99163.88;;;16.91;44.75
47785;BME280;35233;55.686;37.848;2023-05-01T10:21:24;99162.66;;;16.96;44.80
47785;BME280;35233;55.686;37.848;2023-05-01T10:24:03;99153.88;;;16.80;44.86
47785;BME280;35233;55.686;37.848;2023-05-01T10:26:35;99169.41;;;16.88;45.17
47785;BME280;35233;55.686;37.848;2023-05-01T10:29:02;99166.34;;;16.80;44.84
47785;BME280;35233;55.686;37.848;2023-05-01T10:31:28;99168.41;;;16.74;45.08
47785;BME280;35233;55.686;37.848;2023-05-01T10:33:54;99169.63;;;16.69;45.70
47785;BME280;35233;55.686;37.848;2023-05-01T10:36:30;99175.94;;;16.68;45.42
47785;BME280;35233;55.686;37.848;2023-05-01T10:38:58;99179.38;;;16.70;45.41
47785;BME280;35233;55.686;37.848;2023-05-01T10:44:31;99195.50;;;16.83;45.13
47785;BME280;35233;55.686;37.848;2023-05-01T10:46:57;99187.91;;;16.91;44.74
47785;BME280;35233;55.686;37.848;2023-05-01T10:55:37;99192.72;;;16.70;45.71
47785;BME280;35233;55.686;37.848;2023-05-01T10:58:02;99197.91;;;16.57;45.63
47785;BME280;35233;55.686;37.848;2023-05-01T11:00:29;99204.16;;;16.42;46.33
47785;BME280;35233;55.686;37.848;2023-05-01T11:06:34;99230.34;;;16.35;46.24
47785;BME280;35233;55.686;37.848;2023-05-01T11:09:00;99231.56;;;16.29;46.65
47785;BME280;35233;55.686;37.848;2023-05-01T11:11:45;99235.63;;;16.21;46.65
47785;BME280;35233;55.686;37.848;2023-05-01T11:14:12;99240.38;;;16.00;47.15
47785;BME280;35233;55.686;37.848;2023-05-01T11:21:44;99264.75;;;15.76;48.14
47785;BME280;35233;55.686;37.848;2023-05-01T11:24:11;99267.03;;;15.68;48.15
47785;BME280;35233;55.686;37.848;2023-05-01T11:26:38;99281.97;;;15.71;48.40
47785;BME280;35233;55.686;37.848;2023-05-01T11:29:05;99280.38;;;15.67;48.17
47785;BME280;35233;55.686;37.848;2023-05-01T11:31:31;99294.41;;;15.70;47.97
47785;BME280;35233;55.686;37.848;2023-05-01T11:33:58;99295.34;;;15.69;47.77
47785;BME280;35233;55.686;37.848;2023-05-01T11:36:25;99302.53;;;15.67;48.28
47785;BME280;35233;55.686;37.848;2023-05-01T11:38:58;99311.47;;;15.66;48.46
47785;BME280;35233;55.686;37.848;2023-05-01T11:41:26;99314.47;;;15.60;48.07
47785;BME280;35233;55.686;37.848;2023-05-01T11:43:53;99314.53;;;15.58;48.40
47785;BME280;35233;55.686;37.848;2023-05-01T11:46:27;99322.06;;;15.50;48.65
47785;BME280;35233;55.686;37.848;2023-05-01T11:48:54;99330.16;;;15.49;48.46
47785;BME280;35233;55.686;37.848;2023-05-01T11:51:21;99332.97;;;15.46;48.60
47785;BME280;35233;55.686;37.848;2023-05-01T11:56:29;99348.88;;;15.47;48.60
47785;BME280;35233;55.686;37.848;2023-05-01T11:58:56;99342.06;;;15.42;48.78
47785;BME280;35233;55.686;37.848;2023-05-01T12:01:33;99353.03;;;15.35;48.67
47785;BME280;35233;55.686;37.848;2023-05-01T12:03:59;99352.75;;;15.24;48.96
47785;BME280;35233;55.686;37.848;2023-05-01T12:06:37;99377.72;;;15.22;48.83
47785;BME280;35233;55.686;37.848;2023-05-01T12:09:06;99381.41;;;15.19;48.95
47785;BME280;35233;55.686;37.848;2023-05-01T12:11:33;99378.34;;;15.09;49.26
47785;BME280;35233;55.686;37.848;2023-05-01T12:14:00;99386.31;;;15.09;49.07
47785;BME280;35233;55.686;37.848;2023-05-01T12:16:25;99390.78;;;15.09;49.16
47785;BME280;35233;55.686;37.848;2023-05-01T12:18:53;99391.09;;;15.03;49.63
47785;BME280;35233;55.686;37.848;2023-05-01T12:21:19;99389.38;;;15.02;49.53
47785;BME280;35233;55.686;37.848;2023-05-01T12:23:45;99396.25;;;15.06;49.28
47785;BME280;35233;55.686;37.848;2023-05-01T12:26:18;99393.91;;;15.00;49.41
47785;BME280;35233;55.686;37.848;2023-05-01T12:28:58;99398.53;;;14.96;49.43
47785;BME280;35233;55.686;37.848;2023-05-01T12:31:27;99398.75;;;14.91;49.48
47785;BME280;35233;55.686;37.848;2023-05-01T12:34:02;99414.31;;;14.82;49.48
47785;BME280;35233;55.686;37.848;2023-05-01T12:36:30;99416.88;;;14.83;49.76
47785;BME280;35233;55.686;37.848;2023-05-01T12:39:00;99422.75;;;14.73;49.81
47785;BME280;35233;55.686;37.848;2023-05-01T12:41:36;99428.13;;;14.71;49.78
47785;BME280;35233;55.686;37.848;2023-05-01T12:44:23;99435.34;;;14.69;49.77
47785;BME280;35233;55.686;37.848;2023-05-01T12:46:57;99437.22;;;14.67;49.96
47785;BME280;35233;55.686;37.848;2023-05-01T12:49:24;99440.94;;;14.63;49.91
47785;BME280;35233;55.686;37.848;2023-05-01T12:51:52;99444.63;;;14.60;50.11
47785;BME280;35233;55.686;37.848;2023-05-01T12:56:44;99463.22;;;14.60;49.91
47785;BME280;35233;55.686;37.848;2023-05-01T12:59:24;99464.09;;;14.61;50.23
47785;BME280;35233;55.686;37.848;2023-05-01T13:02:01;99467.50;;;14.63;49.71
47785;BME280;35233;55.686;37.848;2023-05-01T13:07:17;99465.09;;;14.58;50.37
47785;BME280;35233;55.686;37.848;2023-05-01T13:09:57;99482.22;;;14.51;49.94
47785;BME280;35233;55.686;37.848;2023-05-01T13:12:24;99481.44;;;14.49;50.09
47785;BME280;35233;55.686;37.848;2023-05-01T13:14:52;99479.56;;;14.51;49.97
47785;BME280;35233;55.686;37.848;2023-05-01T13:19:59;99486.13;;;14.44;50.05
47785;BME280;35233;55.686;37.848;2023-05-01T13:22:33;99487.91;;;14.43;50.07
47785;BME280;35233;55.686;37.848;2023-05-01T13:25:00;99493.53;;;14.37;49.93
47785;BME280;35233;55.686;37.848;2023-05-01T13:27:27;99493.22;;;14.43;50.20
47785;BME280;35233;55.686;37.848;2023-05-01T13:29:57;99499.41;;;14.44;49.63
47785;BME280;35233;55.686;37.848;2023-05-01T13:32:24;99510.31;;;14.38;50.01
47785;BME280;35233;55.686;37.848;2023-05-01T13:34:50;99510.19;;;14.41;50.00
47785;BME280;35233;55.686;37.848;2023-05-01T13:37:18;99510.31;;;14.38;49.94
47785;BME280;35233;55.686;37.848;2023-05-01T13:39:45;99523.53;;;14.39;50.04
47785;BME280;35233;55.686;37.848;2023-05-01T13:42:14;99524.53;;;14.37;49.86
47785;BME280;35233;55.686;37.848;2023-05-01T13:44:45;99532.44;;;14.38;49.71